Loch Lomond, California
Current Conditions -  °F | °C
As of 2:53 PM on Wednesday 22 Oct 2014 (Local Time) from KSTS Reporting Station
Broken Clouds Broken Clouds  
Wind Chill: 75°   Ceiling: 25000
Heat Index: 75°   Visibility: 10mi
Dew Point: 52°   Wind: 5mph
Humidity: 44%   Direction: 170°S
Pressure: 30"   Gusts: NA
Location:  38.7763°N, 122.598°W
Report Text: KSTS 222153Z 17004KT 10SM SCT040 BKN250 24/11 A3000 RMK AO2 SLP153 T02390111
Loading
Personal Weather Stations






























Interactive Weather Map
Tropical Storm Tracking
New forecast layout! Learn more

10-Day Weather Forecast

Advertisements
Track Severe Weather on mobile